Airfield :
LOGIN :

Register | Disclaimer

   EN    FR    IT 

 










Legend :    VFR   Marginal VFR   IFR   Intensive IFR   Very Intensive IFR
Visi :
Ceiling :
>= 8 km
>= 3000ft
5 to 8 km
1000 to 3000 ft
1500m to 5 km
500 to 1000 ft
800 to 1500m
200 to 500 ft
< 800m
< 200 ft
Symbols :   Thunderstorms  Fog  Heavy snow  Heavy precipitations  Wind > 20 kt
SIGMETs :     Misc.  Thunderstorms  Icing  Turbulence  Mountain Waves  Volcanic Ashes







- Airport Elevation : 286 ft
- IATA code : TRF


ENTO - Sandefjord , Torp

CURRENT METAR :
  • 152320Z AUTO 21017KT 4500 NCD 03/03 Q1016

EXPIRED METARs :
  • 152250Z AUTO 21016KT 5000 NCD 03/02 Q1016
  • 152220Z AUTO 21017KT 7000 NCD 03/02 Q1017
  • 152150Z 21016KT 4800 BR NSC 03/03 Q1017 TEMPO 1200 BR BKN002
  • 152120Z 21018KT 6000 NSC 03/03 Q1018 TEMPO 2000 BR BKN003
  • 152050Z 21017KT 6000 NSC 04/03 Q1018 NOSIG
  • 152020Z 20012KT 7000 NSC 03/03 Q1019 NOSIG

TAF TAF ENTO
Valid from the 15 at 18:00 until the 16 at 18:00 UTC


1518/1618 20010KT 9000 FEW006
PROB40 1518/1612 0500 FG VV001
No reported NOTAMs for that airfield.
6 SIGMETs reported for the Norway FIR (ENOR) :
 
Severe mountain waves
ENSV SIGMET B03 VALID 152200/160100 ENVV
ENOR NORWAY FIR SEV MTW FCST WI N6130 E00730 - N6130 E00500 - N6200 E00500 - N6200 E00730 - N6130 E00730 SFC/FL250 STNR WKN=
Severe mountain waves
ENOS SIGMET A04 VALID 152300/160300 ENMI
ENOR NORWAY FIR SEV MTW FCST WI N6030 E00730 - N6200 E00730 - N6200 E01030 - N6030 E00900 - N6030 E00730 SFC/FL250 STNR WKN=
Severe mountain waves
ENOS SIGMET A03 VALID 151900/152300 ENMI
ENOR NORWAY FIR SEV MTW FCST WI N6130 E00730 - N6200 E00730 - N6200 E00900 - N6130 E00900 - N6130 E00730 SFC/FL250 STNR NC=
Severe mountain waves
ENBD SIGMET D05 VALID 152100/160100 ENVN
ENOR NORWAY FIR SEV MTW FCST WI N6500 E01055 - N6805 E01525 - N6805 E01715 - N6500 E01410 - N6500 E01055 SFC/FL090 STNR INTSF=
Severe turbulence
ENBD SIGMET D01 VALID 160001/160400 ENVN
ENOR NORWAY FIR SEV TURB FCST WI N6845 E01700 - N6740 E01440 - N6745 E01200 - N6930 E01600 - N6845 E01700 SFC/FL090 MOV N 10KT INTSF=
Severe mountain waves
ENBD SIGMET C03 VALID 152100/160100 ENVV
ENOR NORWAY FIR SEV MTW FCST WI N6200 E00500 - N6240 E00615 - N6300 E00750 - N6250 E00930 - N6200 E00900 - N6200 E00500 SFC/FL250 STNR WKN=



MET'MAP, your aeronautical weather chart ! - Copyright ORBIFLY December 2007 - Disclaimer

ORBIFLY MET'MAP TEAM :

Programming & Development : Alexandra Zaïnal
Concept & Development : Baudouin d'Aumeries
Co-Development & Prog : Marc-Olivier Méhu
Technical & hardware support : Manuel Goepfert

Contact : metmap@orbifly.com




SOURCES & CREDITS :

   NOAA